Time;durP1;ratioP1;P1;durP2;ratioP2;P2;SDS_P1;SDS_P2;PMS_P1;PMS_P2;Temp;Humidity;BMP_temperature;BMP_pressure;BME280_temperature;BME280_humidity;BME280_pressure;Samples;Min_cycle;Max_cycle;Signal;HPM_P1;HPM_P2
2022/09/15 00:00:31;;;;;;;24.58;21.00;;;14.90;96.90;;;;;;5033274;28;20507;-71
2022/09/15 00:02:59;;;;;;;22.25;19.85;;;14.80;96.80;;;;;;5043141;28;20860;-68
2022/09/15 00:05:26;;;;;;;22.40;19.73;;;14.90;96.60;;;;;;5041456;28;20433;-69
2022/09/15 00:07:53;;;;;;;21.57;19.27;;;14.90;96.70;;;;;;5039517;28;20770;-69
2022/09/15 00:10:20;;;;;;;20.77;18.57;;;14.90;96.80;;;;;;5041423;28;20517;-68
2022/09/15 00:12:47;;;;;;;20.20;18.02;;;14.90;96.70;;;;;;5042018;28;20436;-68
2022/09/15 00:15:16;;;;;;;18.98;17.05;;;14.90;96.70;;;;;;5033848;28;20447;-69
2022/09/15 00:17:47;;;;;;;19.20;17.30;;;14.90;96.50;;;;;;5041532;28;20456;-71
2022/09/15 00:20:16;;;;;;;19.70;17.00;;;14.90;96.60;;;;;;5038662;28;20437;-70
2022/09/15 00:22:44;;;;;;;18.38;16.45;;;14.90;96.60;;;;;;5038900;28;20452;-68
2022/09/15 00:25:11;;;;;;;19.05;17.17;;;14.90;96.70;;;;;;5040667;28;20429;-68
2022/09/15 00:27:38;;;;;;;19.77;17.77;;;14.90;97.10;;;;;;5041153;28;20437;-69
2022/09/15 00:30:07;;;;;;;18.85;16.95;;;14.80;96.80;;;;;;5042840;28;20516;-68
2022/09/15 00:32:34;;;;;;;19.85;17.88;;;14.90;96.80;;;;;;5038088;28;20442;-70
2022/09/15 00:35:01;;;;;;;18.70;16.90;;;14.90;96.80;;;;;;5034176;28;20437;-68
2022/09/15 00:37:29;;;;;;;19.88;17.88;;;14.90;96.70;;;;;;5042014;28;20487;-68
2022/09/15 00:39:56;;;;;;;20.07;17.83;;;14.90;96.90;;;;;;5040772;28;20437;-69
2022/09/15 00:42:23;;;;;;;20.80;18.90;;;14.80;97.00;;;;;;5032877;28;20592;-68
2022/09/15 00:44:55;;;;;;;21.77;19.48;;;14.80;97.10;;;;;;5040870;28;20445;-70
2022/09/15 00:47:29;;;;;;;20.95;18.77;;;14.80;97.10;;;;;;5041104;28;20456;-69
2022/09/15 00:50:01;;;;;;;20.98;19.08;;;14.80;97.30;;;;;;5037927;28;20770;-70
2022/09/15 00:52:37;;;;;;;22.80;20.70;;;14.80;96.70;;;;;;5038622;28;20515;-70
2022/09/15 00:55:07;;;;;;;22.77;20.48;;;14.80;96.60;;;;;;5041263;28;21102;-70
2022/09/15 00:57:39;;;;;;;23.98;21.67;;;14.80;96.50;;;;;;5034787;28;20447;-70
2022/09/15 01:00:10;;;;;;;24.50;22.00;;;14.70;96.50;;;;;;5038144;28;21043;-70
2022/09/15 01:02:38;;;;;;;24.95;22.55;;;14.70;96.60;;;;;;5035211;28;21036;-69
2022/09/15 01:05:09;;;;;;;24.65;22.10;;;14.60;97.00;;;;;;5037498;28;20825;-69
2022/09/15 01:07:41;;;;;;;25.65;23.13;;;14.60;97.20;;;;;;5033363;28;21113;-70
2022/09/15 01:10:14;;;;;;;25.42;22.73;;;14.60;97.20;;;;;;5032122;28;20439;-70
2022/09/15 01:12:41;;;;;;;25.25;22.75;;;14.60;96.90;;;;;;5038298;28;20866;-69
2022/09/15 01:15:09;;;;;;;26.20;23.50;;;14.50;96.70;;;;;;5033438;28;20507;-69
2022/09/15 01:17:46;;;;;;;24.27;21.90;;;14.40;96.90;;;;;;5034409;28;20450;-70
2022/09/15 01:20:50;;;;;;;24.25;21.73;;;14.50;97.10;;;;;;5038597;28;20897;-68
2022/09/15 01:23:45;;;;;;;24.92;21.70;;;14.40;97.20;;;;;;5039631;28;20448;-70
2022/09/15 01:26:41;;;;;;;24.02;21.73;;;14.40;97.40;;;;;;5012552;28;20432;-69
2022/09/15 01:29:34;;;;;;;24.25;21.75;;;14.40;97.10;;;;;;5037095;28;20447;-69
2022/09/15 01:34:58;;;;;;;24.75;22.25;;;14.40;96.80;;;;;;5037137;28;21363;-68
2022/09/15 01:37:30;;;;;;;24.02;21.63;;;14.30;96.80;;;;;;5032458;28;20513;-69
2022/09/15 01:40:00;;;;;;;23.70;21.40;;;14.30;96.90;;;;;;5036567;28;20437;-70
2022/09/15 01:42:27;;;;;;;25.58;22.85;;;14.20;96.90;;;;;;5039647;28;20468;-69
2022/09/15 01:45:00;;;;;;;24.73;22.13;;;14.20;96.90;;;;;;5034626;28;20919;-69
2022/09/15 01:47:29;;;;;;;25.30;22.80;;;14.10;96.80;;;;;;5036742;28;20886;-68
2022/09/15 01:50:00;;;;;;;25.83;23.23;;;14.00;96.90;;;;;;5039283;28;20449;-69
2022/09/15 01:52:28;;;;;;;23.25;20.85;;;14.00;97.00;;;;;;5038268;28;20874;-69
2022/09/15 01:54:58;;;;;;;25.40;22.80;;;14.00;97.20;;;;;;5038762;28;20526;-70
2022/09/15 01:57:26;;;;;;;26.60;22.60;;;14.00;97.30;;;;;;5039232;28;20477;-69
2022/09/15 01:59:56;;;;;;;25.50;22.80;;;14.00;97.40;;;;;;5036524;28;20500;-70
2022/09/15 02:02:26;;;;;;;26.92;24.20;;;14.00;97.50;;;;;;5036371;28;20652;-69
2022/09/15 02:04:56;;;;;;;25.73;23.00;;;14.00;97.60;;;;;;5040201;28;20437;-69
2022/09/15 02:07:34;;;;;;;24.88;22.27;;;14.00;97.60;;;;;;5038531;28;20468;-70
2022/09/15 02:10:06;;;;;;;24.92;22.40;;;14.00;97.80;;;;;;5038341;28;20933;-69
2022/09/15 02:12:39;;;;;;;23.45;21.05;;;14.00;97.60;;;;;;5038434;28;20444;-69
2022/09/15 02:15:13;;;;;;;24.10;21.70;;;14.00;97.50;;;;;;5037998;28;20928;-69
2022/09/15 02:17:46;;;;;;;24.80;22.10;;;14.00;97.30;;;;;;5033831;28;20484;-70
2022/09/15 02:20:17;;;;;;;24.85;22.02;;;14.00;97.20;;;;;;5037471;28;20479;-69
2022/09/15 02:22:49;;;;;;;23.40;21.00;;;13.90;97.30;;;;;;5035495;28;20463;-69
2022/09/15 02:25:22;;;;;;;24.00;21.50;;;13.90;97.40;;;;;;5035949;28;20808;-69
2022/09/15 02:27:52;;;;;;;23.65;21.25;;;13.90;97.30;;;;;;5042289;28;20429;-69
2022/09/15 02:30:21;;;;;;;23.80;21.40;;;13.90;97.30;;;;;;5041631;28;20443;-68
2022/09/15 02:32:53;;;;;;;23.80;21.20;;;13.90;97.20;;;;;;5039291;28;20914;-69
2022/09/15 02:35:20;;;;;;;24.02;21.67;;;13.90;97.20;;;;;;5043402;28;20464;-70
2022/09/15 02:37:48;;;;;;;24.42;21.92;;;13.90;97.30;;;;;;5043634;28;20437;-70
2022/09/15 02:40:15;;;;;;;23.20;20.75;;;14.00;97.40;;;;;;5041318;28;20867;-68
2022/09/15 02:42:53;;;;;;;22.90;20.50;;;14.00;97.30;;;;;;5043413;28;20433;-69
2022/09/15 02:45:21;;;;;;;21.80;19.60;;;14.00;97.10;;;;;;5042604;28;20609;-69
2022/09/15 02:47:49;;;;;;;21.75;19.45;;;14.00;96.90;;;;;;5041897;28;20424;-69
2022/09/15 02:50:16;;;;;;;22.83;20.63;;;14.10;96.80;;;;;;5042996;28;20528;-69
2022/09/15 02:52:42;;;;;;;23.27;20.38;;;14.00;96.80;;;;;;5044349;28;20428;-69
2022/09/15 02:55:10;;;;;;;23.13;20.73;;;14.00;96.80;;;;;;5043137;28;20447;-69
2022/09/15 02:57:37;;;;;;;22.52;20.42;;;14.00;96.80;;;;;;5043453;28;20524;-70
2022/09/15 03:00:15;;;;;;;24.33;21.75;;;14.00;96.80;;;;;;5040734;28;20454;-68
2022/09/15 03:02:46;;;;;;;23.58;21.08;;;13.90;96.90;;;;;;5040640;28;20432;-69
2022/09/15 03:05:14;;;;;;;23.80;21.20;;;13.90;97.10;;;;;;5042714;28;20874;-69
2022/09/15 03:07:41;;;;;;;24.08;21.60;;;13.90;97.20;;;;;;5039485;28;20429;-69
2022/09/15 03:10:10;;;;;;;23.17;20.85;;;13.90;97.30;;;;;;5042758;28;20425;-70
2022/09/15 03:12:38;;;;;;;23.08;20.67;;;13.80;97.30;;;;;;5036508;28;20500;-69
2022/09/15 03:15:07;;;;;;;24.75;21.60;;;13.80;97.30;;;;;;5043551;28;20444;-70
2022/09/15 03:17:35;;;;;;;24.25;21.58;;;13.80;97.30;;;;;;5040055;28;20894;-68
2022/09/15 03:20:04;;;;;;;25.48;22.88;;;13.80;97.30;;;;;;5045824;28;20435;-69
2022/09/15 03:22:31;;;;;;;25.05;22.45;;;13.80;97.40;;;;;;5040583;28;20447;-69
2022/09/15 03:24:58;;;;;;;26.45;23.85;;;13.80;97.40;;;;;;5043137;28;20437;-69
2022/09/15 03:27:25;;;;;;;24.65;22.10;;;13.80;97.50;;;;;;5042973;28;20470;-70
2022/09/15 03:29:53;;;;;;;25.70;22.35;;;13.80;97.50;;;;;;5042224;28;20478;-67
2022/09/15 03:32:20;;;;;;;24.40;21.90;;;13.70;97.70;;;;;;5040628;28;20429;-69
2022/09/15 03:34:46;;;;;;;24.98;22.27;;;13.70;97.90;;;;;;5041873;28;20519;-70
2022/09/15 03:37:15;;;;;;;24.05;21.58;;;13.70;97.90;;;;;;5041517;28;20405;-68
2022/09/15 03:39:41;;;;;;;25.27;22.70;;;13.70;97.90;;;;;;5041492;28;20512;-70
2022/09/15 03:42:08;;;;;;;26.10;21.73;;;13.60;97.90;;;;;;5042529;28;20413;-69
2022/09/15 03:44:35;;;;;;;24.50;21.90;;;13.60;97.90;;;;;;5043467;28;20534;-69
2022/09/15 03:47:02;;;;;;;24.70;22.20;;;13.60;98.00;;;;;;5038021;28;20423;-69
2022/09/15 03:49:29;;;;;;;24.73;22.08;;;13.60;97.90;;;;;;5040444;28;20932;-71
2022/09/15 03:51:57;;;;;;;23.85;21.45;;;13.60;97.90;;;;;;5040880;28;20429;-70
2022/09/15 03:54:26;;;;;;;23.52;21.02;;;13.60;97.80;;;;;;5042959;28;20418;-70
2022/09/15 03:56:53;;;;;;;22.25;19.85;;;13.60;97.80;;;;;;5043571;28;20429;-69
2022/09/15 03:59:20;;;;;;;23.92;21.25;;;13.60;97.80;;;;;;5042800;28;20425;-68
2022/09/15 04:01:48;;;;;;;22.52;20.23;;;13.50;97.80;;;;;;5039630;28;20460;-69
2022/09/15 04:04:16;;;;;;;22.63;20.33;;;13.50;97.80;;;;;;5039438;28;20516;-70
2022/09/15 04:06:43;;;;;;;22.77;20.48;;;13.60;97.70;;;;;;5040825;28;20421;-70
2022/09/15 04:09:10;;;;;;;24.45;20.77;;;13.60;97.70;;;;;;5032027;28;20771;-69
2022/09/15 04:11:39;;;;;;;22.75;20.55;;;13.60;97.60;;;;;;5039121;28;20772;-70
2022/09/15 04:14:06;;;;;;;23.20;20.80;;;13.50;97.50;;;;;;5029821;28;20568;-70
2022/09/15 04:16:33;;;;;;;24.40;21.60;;;13.50;97.60;;;;;;5027801;28;20446;-70
2022/09/15 04:19:00;;;;;;;23.60;21.30;;;13.50;97.60;;;;;;5039679;28;20885;-68
2022/09/15 04:21:27;;;;;;;23.05;20.75;;;13.50;97.50;;;;;;5048302;28;20424;-67
2022/09/15 04:23:54;;;;;;;22.98;20.55;;;13.50;97.60;;;;;;5041237;28;20508;-69
2022/09/15 04:26:23;;;;;;;24.95;22.45;;;13.40;97.60;;;;;;5039999;28;20437;-69
2022/09/15 04:28:51;;;;;;;23.40;21.00;;;13.50;97.60;;;;;;5056398;22;20441;-71
2022/09/15 04:31:19;;;;;;;23.60;21.10;;;13.50;97.50;;;;;;5070990;28;20413;-72
2022/09/15 04:33:47;;;;;;;24.70;22.20;;;13.50;97.40;;;;;;5071624;28;20439;-72
2022/09/15 04:36:16;;;;;;;23.55;21.05;;;13.50;97.50;;;;;;5064995;28;20423;-71
2022/09/15 04:38:43;;;;;;;24.17;21.58;;;13.50;97.60;;;;;;5066734;28;20784;-68
2022/09/15 04:41:10;;;;;;;24.25;21.75;;;13.50;97.40;;;;;;5070058;28;20420;-70
2022/09/15 04:43:37;;;;;;;24.35;21.92;;;13.50;97.40;;;;;;5076760;28;20430;-69
2022/09/15 04:46:06;;;;;;;22.55;20.33;;;13.50;97.40;;;;;;5075985;28;20924;-68
2022/09/15 04:48:33;;;;;;;23.95;21.50;;;13.50;97.60;;;;;;5075264;28;20455;-69
2022/09/15 04:51:04;;;;;;;23.50;21.10;;;13.50;97.60;;;;;;5066049;28;20427;-68
2022/09/15 04:53:31;;;;;;;24.10;21.80;;;13.50;97.50;;;;;;5081640;28;20422;-69
2022/09/15 04:56:05;;;;;;;26.17;22.90;;;13.50;97.50;;;;;;5082738;28;20435;-69
2022/09/15 04:58:36;;;;;;;26.30;23.50;;;13.50;97.70;;;;;;5076589;28;20441;-70
2022/09/15 05:01:09;;;;;;;25.10;22.40;;;13.50;98.00;;;;;;5072484;28;20431;-68
2022/09/15 05:03:36;;;;;;;24.52;22.00;;;13.60;98.10;;;;;;5073005;28;20920;-69
2022/09/15 05:06:04;;;;;;;23.05;20.73;;;13.60;98.00;;;;;;5068627;28;20436;-69
2022/09/15 05:08:31;;;;;;;24.58;22.10;;;13.60;97.70;;;;;;5090737;28;20406;-70
2022/09/15 05:11:00;;;;;;;24.90;22.30;;;13.60;97.60;;;;;;5074883;28;20435;-68
2022/09/15 05:13:26;;;;;;;24.98;22.40;;;13.60;97.60;;;;;;5069567;28;20932;-69
2022/09/15 05:15:53;;;;;;;23.80;21.25;;;13.70;97.80;;;;;;5072484;28;20980;-69
2022/09/15 05:18:21;;;;;;;23.33;21.02;;;13.70;97.80;;;;;;5069893;28;20435;-69
2022/09/15 05:20:48;;;;;;;22.75;20.45;;;13.70;97.50;;;;;;5067754;28;20424;-69
2022/09/15 05:23:15;;;;;;;22.92;20.52;;;13.70;97.30;;;;;;5088992;28;21142;-69
2022/09/15 05:25:42;;;;;;;22.57;20.27;;;13.70;96.90;;;;;;5084673;28;20928;-69
2022/09/15 05:28:08;;;;;;;22.93;20.63;;;13.80;96.80;;;;;;5072816;28;20433;-68
2022/09/15 05:30:38;;;;;;;22.43;20.23;;;13.80;96.60;;;;;;5074425;28;20419;-67
2022/09/15 05:33:05;;;;;;;22.83;20.42;;;13.80;96.60;;;;;;5072229;28;20427;-67
2022/09/15 05:35:33;;;;;;;21.50;19.30;;;13.80;96.90;;;;;;5070590;28;20446;-70
2022/09/15 05:38:00;;;;;;;20.92;18.83;;;13.80;96.80;;;;;;5071539;28;20455;-69
2022/09/15 05:40:27;;;;;;;21.60;19.35;;;13.90;96.60;;;;;;5069516;28;20442;-69
2022/09/15 05:42:53;;;;;;;22.73;20.55;;;13.90;96.30;;;;;;5065840;28;20430;-69
2022/09/15 05:45:20;;;;;;;21.17;18.27;;;13.90;96.40;;;;;;5069850;28;20433;-68
2022/09/15 05:47:47;;;;;;;19.98;18.08;;;13.90;96.10;;;;;;5064549;28;20436;-68
2022/09/15 05:50:15;;;;;;;21.23;19.05;;;13.90;95.80;;;;;;5067540;28;20963;-68
2022/09/15 05:52:43;;;;;;;20.70;18.70;;;14.00;95.90;;;;;;5068897;28;20442;-72
2022/09/15 05:55:10;;;;;;;18.75;17.02;;;14.00;95.70;;;;;;5074858;28;20795;-67
2022/09/15 05:57:36;;;;;;;19.00;17.20;;;14.00;95.50;;;;;;5078460;28;20457;-68
2022/09/15 06:00:04;;;;;;;19.50;17.50;;;14.10;95.10;;;;;;5073747;28;20950;-69
2022/09/15 06:02:31;;;;;;;18.70;16.80;;;14.10;95.00;;;;;;5069809;28;21296;-69
2022/09/15 06:04:57;;;;;;;19.65;17.65;;;14.10;94.80;;;;;;5078525;28;20436;-69
2022/09/15 06:07:24;;;;;;;20.05;18.15;;;14.10;94.80;;;;;;5090191;28;20417;-68
2022/09/15 06:09:53;;;;;;;20.88;17.63;;;14.10;94.90;;;;;;5074188;28;20433;-69
2022/09/15 06:12:20;;;;;;;19.52;17.55;;;14.10;94.80;;;;;;5078682;28;20801;-69
2022/09/15 06:14:49;;;;;;;19.85;17.92;;;14.00;95.10;;;;;;5088707;28;20425;-67
2022/09/15 06:17:16;;;;;;;20.90;18.80;;;14.10;95.50;;;;;;5070502;28;20536;-68
2022/09/15 06:19:42;;;;;;;19.80;17.80;;;14.20;95.60;;;;;;5082453;28;20431;-66
2022/09/15 06:22:10;;;;;;;19.37;17.47;;;14.20;95.60;;;;;;5098798;28;20437;-68
2022/09/15 06:24:37;;;;;;;18.97;17.07;;;14.30;95.30;;;;;;5093070;28;20892;-67
2022/09/15 06:27:06;;;;;;;19.15;17.15;;;14.30;95.20;;;;;;5087265;28;20879;-67
2022/09/15 06:29:33;;;;;;;18.88;16.98;;;14.30;95.00;;;;;;5073021;28;20909;-68
2022/09/15 06:32:01;;;;;;;20.58;17.85;;;14.30;94.70;;;;;;5068909;28;20510;-68
2022/09/15 06:34:28;;;;;;;18.50;16.60;;;14.40;94.60;;;;;;5071017;28;20458;-68
2022/09/15 06:36:55;;;;;;;18.20;16.50;;;14.50;94.60;;;;;;5071257;28;20474;-67
2022/09/15 06:39:22;;;;;;;17.33;15.80;;;14.50;94.70;;;;;;5066939;28;20438;-69
2022/09/15 06:41:49;;;;;;;19.00;16.23;;;14.60;94.20;;;;;;5068047;28;20431;-68
2022/09/15 06:44:17;;;;;;;17.83;16.00;;;14.60;94.10;;;;;;5072576;28;20433;-68
2022/09/15 06:46:43;;;;;;;17.30;15.50;;;14.60;94.10;;;;;;5069232;28;20457;-68
2022/09/15 06:49:10;;;;;;;17.73;15.80;;;14.60;94.00;;;;;;5065959;28;20439;-68
2022/09/15 06:51:37;;;;;;;16.45;14.85;;;14.70;94.10;;;;;;5069492;28;20438;-68
2022/09/15 06:54:05;;;;;;;17.55;15.90;;;14.70;93.70;;;;;;5066190;28;20512;-70
2022/09/15 06:56:32;;;;;;;17.95;16.05;;;14.80;93.80;;;;;;5071087;28;20420;-68
2022/09/15 06:59:00;;;;;;;17.77;16.05;;;14.80;93.60;;;;;;5067778;28;20431;-67
2022/09/15 07:01:30;;;;;;;18.20;16.30;;;14.90;93.60;;;;;;5069125;28;20425;-68
2022/09/15 07:03:58;;;;;;;18.03;14.97;;;14.90;93.50;;;;;;5068883;28;20588;-67
2022/09/15 07:06:27;;;;;;;18.40;16.60;;;14.90;93.80;;;;;;5069852;28;20827;-67
2022/09/15 07:08:54;;;;;;;20.33;17.87;;;15.00;93.70;;;;;;5072656;28;20487;-67
2022/09/15 07:11:21;;;;;;;19.55;17.85;;;15.00;93.70;;;;;;5080984;28;20969;-66
2022/09/15 07:13:48;;;;;;;19.88;17.88;;;15.10;93.20;;;;;;5073761;28;20522;-68
2022/09/15 07:16:15;;;;;;;19.00;17.20;;;15.10;93.40;;;;;;5068658;28;20466;-70
2022/09/15 07:18:43;;;;;;;18.50;16.55;;;15.20;93.20;;;;;;5072088;28;20829;-67
2022/09/15 07:21:12;;;;;;;18.80;17.20;;;15.20;93.00;;;;;;5068950;28;20424;-67
2022/09/15 07:23:39;;;;;;;18.90;17.08;;;15.20;92.60;;;;;;5074366;28;20444;-67
2022/09/15 07:26:08;;;;;;;19.50;17.60;;;15.30;92.40;;;;;;5078449;28;20439;-67
2022/09/15 07:28:35;;;;;;;19.30;17.50;;;15.30;92.60;;;;;;5067113;28;20800;-66
2022/09/15 07:31:02;;;;;;;20.25;18.35;;;15.30;92.70;;;;;;5075889;28;20443;-67
2022/09/15 07:33:29;;;;;;;21.23;19.33;;;15.40;92.50;;;;;;5071325;28;20439;-68
2022/09/15 07:35:57;;;;;;;21.10;18.60;;;15.40;92.40;;;;;;5069624;28;20434;-67
2022/09/15 07:38:24;;;;;;;20.23;18.50;;;15.50;92.30;;;;;;5070980;28;20434;-67
2022/09/15 07:40:51;;;;;;;21.50;19.60;;;15.60;92.20;;;;;;5073880;28;20427;-67
2022/09/15 07:43:18;;;;;;;21.05;19.15;;;15.60;91.70;;;;;;5079947;28;20511;-67
2022/09/15 07:45:44;;;;;;;20.33;18.52;;;15.70;91.60;;;;;;5072189;28;20463;-67
2022/09/15 07:48:11;;;;;;;19.63;17.83;;;15.80;91.20;;;;;;5071285;28;20423;-67
2022/09/15 07:50:38;;;;;;;19.27;17.67;;;15.80;91.20;;;;;;5072535;28;20434;-69
2022/09/15 07:53:07;;;;;;;18.38;16.88;;;15.90;91.30;;;;;;5073202;28;20438;-68
2022/09/15 07:55:33;;;;;;;16.92;15.32;;;15.90;91.50;;;;;;5070486;28;20430;-68
2022/09/15 07:58:01;;;;;;;17.73;15.93;;;16.10;90.80;;;;;;5073478;28;20438;-68
2022/09/15 08:00:27;;;;;;;17.65;16.05;;;16.10;90.60;;;;;;5071191;28;20431;-66
2022/09/15 08:02:55;;;;;;;17.58;15.98;;;16.10;90.40;;;;;;5069133;28;20443;-67
2022/09/15 08:05:22;;;;;;;16.95;15.30;;;16.20;90.40;;;;;;5068481;28;20427;-68
2022/09/15 08:07:50;;;;;;;16.17;14.68;;;16.30;90.60;;;;;;5069270;28;20439;-70
2022/09/15 08:10:18;;;;;;;16.42;14.93;;;16.30;90.40;;;;;;5074297;28;20442;-69
2022/09/15 08:12:45;;;;;;;16.03;14.63;;;16.30;90.10;;;;;;5067679;28;20428;-67
2022/09/15 08:15:11;;;;;;;15.70;14.10;;;16.40;90.40;;;;;;5068812;28;20439;-67
2022/09/15 08:17:38;;;;;;;16.55;15.00;;;16.40;90.30;;;;;;5069757;28;20431;-67
2022/09/15 08:20:06;;;;;;;16.20;14.70;;;16.40;89.80;;;;;;5075600;28;20977;-68
2022/09/15 08:22:33;;;;;;;15.63;14.27;;;16.40;89.60;;;;;;5066663;28;20435;-67
2022/09/15 08:25:00;;;;;;;15.60;14.20;;;16.40;90.00;;;;;;5072950;28;20432;-67
2022/09/15 08:27:28;;;;;;;15.25;13.93;;;16.30;89.50;;;;;;5072451;28;20817;-69
2022/09/15 08:29:55;;;;;;;14.95;13.45;;;16.30;90.00;;;;;;5072595;28;20932;-68
2022/09/15 08:32:21;;;;;;;14.60;13.40;;;16.40;90.20;;;;;;5066354;28;20446;-69
2022/09/15 08:34:48;;;;;;;15.53;14.03;;;16.50;90.00;;;;;;5075016;28;20427;-69
2022/09/15 08:37:16;;;;;;;14.90;13.60;;;16.70;89.00;;;;;;5082807;28;20447;-68
2022/09/15 08:39:44;;;;;;;13.77;12.57;;;16.80;88.40;;;;;;5075652;28;20411;-69
2022/09/15 08:42:15;;;;;;;13.55;12.23;;;17.00;88.30;;;;;;5069298;28;20435;-69
2022/09/15 08:44:48;;;;;;;14.27;12.88;;;17.10;88.80;;;;;;5069076;28;20431;-69
2022/09/15 08:47:18;;;;;;;14.07;12.77;;;17.30;87.30;;;;;;5081666;28;20828;-69
2022/09/15 08:49:54;;;;;;;15.70;14.20;;;17.40;87.20;;;;;;5082965;28;20434;-69
2022/09/15 08:52:26;;;;;;;13.90;12.70;;;17.50;84.20;;;;;;5082733;28;20421;-69
2022/09/15 08:54:57;;;;;;;14.32;13.10;;;17.40;85.10;;;;;;5068527;28;21166;-70
2022/09/15 08:57:25;;;;;;;13.38;12.18;;;17.50;84.40;;;;;;5068422;28;20944;-68
2022/09/15 08:59:54;;;;;;;12.85;11.65;;;17.60;84.00;;;;;;5069625;28;20984;-69
2022/09/15 09:03:01;;;;;;;13.13;12.02;;;17.60;84.10;;;;;;5067775;28;20432;-69
2022/09/15 09:05:44;;;;;;;14.88;13.57;;;17.70;83.30;;;;;;5048823;28;20436;-69
2022/09/15 09:08:37;;;;;;;15.55;14.25;;;17.70;81.90;;;;;;5066281;28;20426;-69
2022/09/15 09:11:14;;;;;;;14.57;13.17;;;17.70;82.40;;;;;;5066137;28;20431;-68
2022/09/15 09:13:47;;;;;;;13.88;12.77;;;17.70;82.90;;;;;;5072651;28;20983;-68
2022/09/15 09:16:48;;;;;;;13.90;12.70;;;18.00;82.20;;;;;;5071454;28;20433;-68
2022/09/15 09:19:38;;;;;;;14.68;13.38;;;18.20;79.80;;;;;;5073326;28;20446;-68
2022/09/15 09:22:10;;;;;;;14.95;13.55;;;18.20;79.20;;;;;;5072567;28;20423;-68
2022/09/15 09:24:43;;;;;;;14.32;13.02;;;18.10;80.00;;;;;;5073907;28;20424;-68
2022/09/15 09:27:13;;;;;;;13.70;12.60;;;18.00;79.10;;;;;;5068402;28;20427;-68
2022/09/15 09:29:43;;;;;;;13.80;12.70;;;18.10;79.80;;;;;;5065236;28;20440;-70
2022/09/15 09:32:17;;;;;;;11.90;10.80;;;18.20;81.20;;;;;;5069483;28;20432;-70
2022/09/15 09:34:49;;;;;;;11.50;10.50;;;18.30;78.90;;;;;;5068955;28;20489;-71
2022/09/15 09:37:17;;;;;;;11.88;10.77;;;18.40;77.10;;;;;;5070736;28;20431;-70
2022/09/15 09:39:45;;;;;;;11.17;10.27;;;18.40;77.00;;;;;;5062395;28;20444;-70
2022/09/15 09:42:15;;;;;;;11.20;10.40;;;18.30;77.20;;;;;;5071063;28;20506;-71
2022/09/15 09:44:42;;;;;;;11.98;10.77;;;18.20;77.50;;;;;;5071010;28;21008;-70
2022/09/15 09:47:11;;;;;;;10.80;9.43;;;18.20;77.50;;;;;;5078253;28;20438;-69
2022/09/15 09:49:42;;;;;;;11.10;9.98;;;18.20;78.00;;;;;;5070891;28;20518;-70
2022/09/15 09:52:09;;;;;;;8.90;8.10;;;18.40;77.60;;;;;;5078852;28;20434;-70
2022/09/15 09:54:36;;;;;;;9.47;7.33;;;18.50;76.90;;;;;;5090535;28;20414;-70
2022/09/15 09:57:30;;;;;;;8.93;8.03;;;18.70;76.20;;;;;;5078325;28;20504;-70
2022/09/15 09:59:57;;;;;;;8.30;6.90;;;18.90;73.90;;;;;;5031669;28;20493;-69
2022/09/15 10:02:25;;;;;;;5.95;5.13;;;18.90;72.20;;;;;;5072757;28;20442;-69
2022/09/15 10:04:55;;;;;;;6.60;3.85;;;19.00;72.20;;;;;;5070228;28;20942;-70
2022/09/15 10:07:24;;;;;;;4.95;3.80;;;19.00;70.30;;;;;;5070409;28;20427;-69
2022/09/15 10:09:56;;;;;;;6.03;4.88;;;19.00;69.60;;;;;;5067330;28;20419;-71
2022/09/15 10:12:28;;;;;;;6.07;4.70;;;19.00;68.60;;;;;;5075135;28;20945;-70
2022/09/15 10:14:57;;;;;;;7.05;3.70;;;18.80;69.40;;;;;;5071307;28;20433;-70
2022/09/15 10:17:26;;;;;;;4.82;3.13;;;18.80;69.90;;;;;;5069437;28;20900;-70
2022/09/15 10:19:56;;;;;;;5.30;4.00;;;18.80;68.70;;;;;;5070462;28;20427;-70
2022/09/15 10:22:29;;;;;;;5.03;3.75;;;18.90;69.10;;;;;;5068639;28;20427;-69
2022/09/15 10:24:57;;;;;;;5.68;3.20;;;18.70;69.20;;;;;;5062079;28;20435;-70
2022/09/15 10:27:29;;;;;;;3.05;2.53;;;18.60;69.90;;;;;;5071452;28;20426;-69
2022/09/15 10:29:59;;;;;;;3.53;2.55;;;18.50;70.90;;;;;;5078513;28;20897;-70
2022/09/15 10:32:28;;;;;;;3.67;2.50;;;18.60;69.30;;;;;;5073473;28;20420;-69
2022/09/15 10:35:07;;;;;;;5.70;2.83;;;18.60;69.60;;;;;;5067115;28;20437;-70
2022/09/15 10:37:42;;;;;;;4.03;2.25;;;18.70;71.60;;;;;;5071333;28;20438;-70
2022/09/15 10:40:24;;;;;;;3.85;2.40;;;18.90;68.10;;;;;;5076553;28;20438;-71
2022/09/15 10:42:53;;;;;;;3.03;1.90;;;18.90;66.00;;;;;;5061561;28;20434;-70
2022/09/15 10:45:32;;;;;;;3.40;2.80;;;18.80;67.20;;;;;;5075809;28;20423;-69
2022/09/15 10:48:22;;;;;;;4.93;3.25;;;18.70;68.50;;;;;;5076647;28;20475;-69
2022/09/15 10:50:57;;;;;;;6.87;4.30;;;18.60;69.80;;;;;;5072222;28;20426;-70
2022/09/15 10:53:40;;;;;;;5.35;4.00;;;18.70;70.90;;;;;;5078163;28;20883;-76
2022/09/15 10:56:21;;;;;;;5.23;3.53;;;18.80;71.50;;;;;;5077592;28;20766;-73
2022/09/15 10:59:07;;;;;;;4.43;3.30;;;18.70;69.70;;;;;;5093436;28;20432;-74
2022/09/15 11:01:57;;;;;;;4.72;3.30;;;18.60;69.70;;;;;;5067514;28;20419;-75
2022/09/15 11:04:53;;;;;;;3.85;2.50;;;18.50;69.70;;;;;;5076168;28;20435;-75
2022/09/15 11:07:28;;;;;;;4.63;2.70;;;18.50;67.00;;;;;;5076986;28;20433;-73
2022/09/15 11:10:03;;;;;;;4.70;2.90;;;18.60;68.30;;;;;;5077110;28;20426;-76
2022/09/15 11:12:44;;;;;;;4.15;3.00;;;18.70;68.90;;;;;;5097461;28;20412;-74
2022/09/15 11:15:27;;;;;;;2.90;2.60;;;18.70;67.60;;;;;;5084410;28;20418;-74
2022/09/15 11:18:09;;;;;;;3.78;2.40;;;18.80;67.30;;;;;;5071819;28;20437;-74
2022/09/15 11:20:52;;;;;;;5.10;2.67;;;18.80;67.60;;;;;;5065566;28;20427;-73
2022/09/15 11:23:28;;;;;;;4.05;2.60;;;18.90;67.40;;;;;;5061570;28;20457;-74
2022/09/15 11:26:00;;;;;;;3.92;2.63;;;19.00;66.00;;;;;;5073755;28;20513;-74
2022/09/15 11:28:33;;;;;;;5.20;3.10;;;19.00;65.20;;;;;;5074246;28;20432;-76
2022/09/15 11:31:05;;;;;;;3.80;2.53;;;19.00;64.90;;;;;;5079652;28;20452;-74
2022/09/15 11:33:37;;;;;;;3.50;2.60;;;19.00;65.20;;;;;;5068929;28;20793;-74
2022/09/15 11:36:09;;;;;;;5.38;3.20;;;18.90;65.70;;;;;;5064598;28;20432;-77
2022/09/15 11:38:46;;;;;;;4.57;3.45;;;18.80;65.50;;;;;;5068918;28;20428;-74
2022/09/15 11:41:20;;;;;;;6.20;3.40;;;18.70;66.20;;;;;;5077812;28;20437;-74
2022/09/15 11:44:00;;;;;;;4.72;3.30;;;18.60;67.70;;;;;;5071552;28;20518;-74
2022/09/15 11:46:35;;;;;;;8.70;3.33;;;18.50;69.00;;;;;;5073569;28;20435;-77
2022/09/15 11:49:06;;;;;;;3.33;3.03;;;18.60;68.00;;;;;;5094447;28;22108;-73
2022/09/15 11:51:39;;;;;;;3.80;2.60;;;18.80;67.70;;;;;;5094596;28;20431;-75
2022/09/15 11:54:13;;;;;;;3.53;3.10;;;18.90;66.50;;;;;;5092269;28;20422;-74
2022/09/15 11:56:44;;;;;;;3.40;2.97;;;19.00;66.20;;;;;;5083306;28;20831;-74
2022/09/15 11:59:20;;;;;;;4.10;2.90;;;19.10;66.00;;;;;;5093272;28;20410;-74
2022/09/15 12:01:53;;;;;;;3.47;2.90;;;19.10;66.40;;;;;;5083538;28;20433;-74
2022/09/15 12:04:26;;;;;;;3.13;2.60;;;19.10;64.60;;;;;;5073537;28;20432;-74
2022/09/15 12:06:57;;;;;;;4.95;3.17;;;19.00;64.70;;;;;;5075282;28;20431;-74
2022/09/15 12:09:26;;;;;;;4.97;2.92;;;18.90;65.60;;;;;;5066520;28;20442;-74
2022/09/15 12:11:57;;;;;;;3.17;2.60;;;18.80;65.50;;;;;;5067768;28;20496;-75
2022/09/15 12:14:32;;;;;;;4.32;2.70;;;18.80;66.00;;;;;;5084830;28;20432;-74
2022/09/15 12:16:59;;;;;;;2.80;2.20;;;18.90;64.90;;;;;;5063415;28;20473;-75
2022/09/15 12:19:46;;;;;;;4.90;2.80;;;18.90;65.70;;;;;;5076810;28;20433;-75
2022/09/15 12:22:19;;;;;;;4.80;2.50;;;18.90;64.30;;;;;;5068834;28;20435;-73
2022/09/15 12:24:55;;;;;;;3.35;1.95;;;19.00;65.40;;;;;;5065520;28;20515;-74
2022/09/15 12:27:22;;;;;;;2.50;2.10;;;19.10;64.50;;;;;;5070250;28;20431;-75
2022/09/15 12:29:50;;;;;;;4.60;2.10;;;19.20;64.40;;;;;;5072046;28;20431;-76
2022/09/15 12:32:20;;;;;;;4.35;2.05;;;19.20;65.00;;;;;;5067784;28;20452;-75
2022/09/15 12:34:58;;;;;;;5.05;2.50;;;19.20;65.20;;;;;;5070428;28;20929;-75
2022/09/15 12:37:29;;;;;;;2.47;1.80;;;19.40;65.50;;;;;;5073852;28;20432;-76
2022/09/15 12:39:57;;;;;;;2.65;1.63;;;19.60;63.60;;;;;;5076213;28;20427;-76
2022/09/15 12:42:27;;;;;;;2.03;1.50;;;19.80;61.60;;;;;;5072688;28;20479;-76
2022/09/15 12:44:56;;;;;;;2.90;1.50;;;20.00;61.10;;;;;;5083092;28;20941;-75
2022/09/15 12:47:35;;;;;;;3.58;1.30;;;20.00;59.30;;;;;;5073813;28;20433;-74
2022/09/15 12:50:08;;;;;;;3.35;1.50;;;19.90;58.60;;;;;;5076267;28;21054;-76